Time;durP1;ratioP1;P1;durP2;ratioP2;P2;SDS_P1;SDS_P2;PMS_P1;PMS_P2;Temp;Humidity;BMP_temperature;BMP_pressure;BME280_temperature;BME280_humidity;BME280_pressure;Samples;Min_cycle;Max_cycle;Signal;HPM_P1;HPM_P2
2022/11/02 00:00:24;;;;;;;8.20;3.95;;;;;;;8.34;100.00;96568.28;5070451;28;20058;-63
2022/11/02 00:02:49;;;;;;;4.60;3.90;;;;;;;8.32;100.00;96573.63;5071083;28;20418;-64
2022/11/02 00:05:15;;;;;;;4.40;3.95;;;;;;;8.33;100.00;96569.22;5070000;28;20031;-63
2022/11/02 00:07:41;;;;;;;6.20;3.80;;;;;;;8.36;100.00;96570.81;5068816;28;20119;-63
2022/11/02 00:10:08;;;;;;;4.78;4.05;;;;;;;8.42;100.00;96575.63;5071091;28;20054;-63
2022/11/02 00:12:33;;;;;;;8.48;5.20;;;;;;;8.44;100.00;96569.31;5070529;28;20047;-69
2022/11/02 00:14:59;;;;;;;4.75;4.35;;;;;;;8.52;100.00;96570.59;5070435;28;20364;-69
2022/11/02 00:17:24;;;;;;;5.72;5.13;;;;;;;8.55;100.00;96568.59;5069847;28;20115;-69
2022/11/02 00:19:50;;;;;;;5.55;4.88;;;;;;;8.62;100.00;96568.16;5070435;28;20032;-69
2022/11/02 00:22:15;;;;;;;6.18;4.93;;;;;;;8.66;100.00;96569.63;5070005;28;20547;-69
2022/11/02 00:24:41;;;;;;;7.65;5.47;;;;;;;8.68;100.00;96567.72;5071832;28;20028;-69
2022/11/02 00:27:07;;;;;;;8.25;5.15;;;;;;;8.69;100.00;96556.28;5068941;28;20036;-69
2022/11/02 00:29:33;;;;;;;8.13;5.15;;;;;;;8.71;100.00;96559.63;5069596;28;20039;-69
2022/11/02 00:31:59;;;;;;;8.02;5.00;;;;;;;8.70;100.00;96560.56;5069754;28;20029;-63
2022/11/02 00:34:24;;;;;;;6.20;5.45;;;;;;;8.70;100.00;96561.44;5068987;28;20032;-68
2022/11/02 00:36:50;;;;;;;6.70;4.68;;;;;;;8.73;100.00;96560.34;5069851;28;20047;-67
2022/11/02 00:39:16;;;;;;;6.82;4.28;;;;;;;8.75;100.00;96555.84;5069668;28;20061;-67
2022/11/02 00:41:41;;;;;;;7.40;5.20;;;;;;;8.80;100.00;96563.38;5071028;28;20454;-68
2022/11/02 00:44:07;;;;;;;4.90;4.50;;;;;;;8.85;100.00;96559.50;5069479;28;20107;-68
2022/11/02 00:46:32;;;;;;;6.28;4.18;;;;;;;8.90;100.00;96561.78;5069333;28;20044;-68
2022/11/02 00:48:58;;;;;;;7.80;4.63;;;;;;;8.90;100.00;96561.78;5069809;28;20067;-67
2022/11/02 00:51:23;;;;;;;5.15;4.65;;;;;;;8.90;100.00;96559.16;5069461;28;20040;-69
2022/11/02 00:53:48;;;;;;;5.47;4.32;;;;;;;8.92;100.00;96564.28;5069553;28;20036;-61
2022/11/02 00:56:14;;;;;;;4.93;4.53;;;;;;;8.94;100.00;96562.41;5069045;28;20623;-61
2022/11/02 00:58:39;;;;;;;6.72;4.80;;;;;;;8.97;100.00;96567.44;5069603;28;20028;-61
2022/11/02 01:01:06;;;;;;;5.03;4.43;;;;;;;8.96;100.00;96566.59;5068944;28;20036;-61
2022/11/02 01:03:31;;;;;;;7.32;4.70;;;;;;;8.98;100.00;96567.31;5050467;28;20438;-62
2022/11/02 01:05:56;;;;;;;6.80;4.53;;;;;;;9.00;100.00;96567.22;5068598;28;20036;-61
2022/11/02 01:08:22;;;;;;;4.55;4.22;;;;;;;9.01;100.00;96561.03;5069470;28;20090;-62
2022/11/02 01:10:47;;;;;;;5.20;4.15;;;;;;;9.05;100.00;96559.00;5069593;28;20041;-64
2022/11/02 01:13:12;;;;;;;6.00;4.60;;;;;;;9.08;100.00;96564.88;5067069;28;20533;-60
2022/11/02 01:15:38;;;;;;;7.32;4.85;;;;;;;9.12;100.00;96560.25;5069199;28;20044;-59
2022/11/02 01:18:04;;;;;;;7.28;4.80;;;;;;;9.18;100.00;96565.03;5068665;28;20051;-59
2022/11/02 01:20:30;;;;;;;6.13;5.53;;;;;;;9.21;100.00;96567.44;5068027;28;20068;-60
2022/11/02 01:22:57;;;;;;;8.35;5.85;;;;;;;9.24;100.00;96558.50;5069260;28;20099;-59
2022/11/02 01:25:23;;;;;;;8.93;6.15;;;;;;;9.28;100.00;96565.22;5065287;28;20032;-60
2022/11/02 01:27:49;;;;;;;6.93;6.18;;;;;;;9.32;100.00;96562.25;5069275;28;20044;-59
2022/11/02 01:30:14;;;;;;;9.73;5.70;;;;;;;9.38;100.00;96555.69;5066850;28;20403;-67
2022/11/02 01:32:39;;;;;;;6.25;5.65;;;;;;;9.44;100.00;96557.88;5068661;28;20032;-69
2022/11/02 01:35:05;;;;;;;9.32;7.05;;;;;;;9.49;100.00;96546.19;5068893;28;20048;-69
2022/11/02 01:37:30;;;;;;;7.05;6.43;;;;;;;9.54;100.00;96554.56;5067999;28;20518;-69
2022/11/02 01:39:56;;;;;;;11.38;6.20;;;;;;;9.59;100.00;96550.66;5068070;28;20025;-68
2022/11/02 01:42:23;;;;;;;13.93;7.50;;;;;;;9.63;100.00;96551.25;5068684;28;20031;-68
2022/11/02 01:44:49;;;;;;;10.40;7.18;;;;;;;9.66;100.00;96555.44;5068263;28;20029;-68
2022/11/02 01:47:27;;;;;;;7.90;6.53;;;;;;;9.68;100.00;96549.13;5066783;28;20490;-68
2022/11/02 01:49:59;;;;;;;7.20;6.30;;;;;;;9.71;100.00;96545.41;5068436;28;20039;-64
2022/11/02 01:52:33;;;;;;;10.38;6.43;;;;;;;9.72;100.00;96539.19;5067216;28;20040;-67
2022/11/02 01:55:20;;;;;;;6.72;5.70;;;;;;;9.75;100.00;96546.88;5049290;28;20429;-67
2022/11/02 01:57:54;;;;;;;5.93;5.40;;;;;;;9.77;100.00;96544.97;5062348;28;20115;-67
2022/11/02 02:00:20;;;;;;;5.57;4.85;;;;;;;9.78;100.00;96544.00;5065659;28;20024;-67
2022/11/02 02:03:00;;;;;;;5.32;4.82;;;;;;;9.81;100.00;96532.41;5067554;28;20744;-67
2022/11/02 02:05:26;;;;;;;12.40;4.97;;;;;;;9.83;100.00;96530.47;5067714;28;20146;-67
2022/11/02 02:07:53;;;;;;;6.03;4.55;;;;;;;9.85;100.00;96525.97;5068487;28;20062;-69
2022/11/02 02:10:19;;;;;;;7.15;4.80;;;;;;;9.87;100.00;96524.88;5067070;28;20043;-69
2022/11/02 02:12:45;;;;;;;8.73;5.07;;;;;;;9.87;100.00;96518.81;5067712;28;20052;-60
2022/11/02 02:15:11;;;;;;;8.75;4.53;;;;;;;9.87;100.00;96508.28;5068635;28;20055;-59
2022/11/02 02:18:08;;;;;;;4.78;4.35;;;;;;;9.86;100.00;96517.13;5069444;28;20402;-60
2022/11/02 02:20:36;;;;;;;5.38;4.43;;;;;;;9.84;100.00;96509.34;5056076;28;20044;-60
2022/11/02 02:23:12;;;;;;;10.65;4.80;;;;;;;9.81;100.00;96509.59;5068785;28;20055;-59
2022/11/02 02:25:52;;;;;;;7.93;4.05;;;;;;;9.80;100.00;96513.16;5067594;28;20036;-60
2022/11/02 02:28:20;;;;;;;7.55;3.97;;;;;;;9.83;100.00;96512.06;5067782;28;20115;-68
2022/11/02 02:30:50;;;;;;;8.85;3.58;;;;;;;9.85;100.00;96521.53;5067391;28;20116;-64
2022/11/02 02:33:44;;;;;;;10.05;4.45;;;;;;;9.86;100.00;96522.38;5064338;28;20047;-64
2022/11/02 02:36:29;;;;;;;5.93;4.88;;;;;;;9.85;100.00;96515.47;5065240;28;20062;-64
2022/11/02 02:39:02;;;;;;;7.75;4.43;;;;;;;9.87;100.00;96521.44;5067754;28;20033;-64
2022/11/02 02:41:38;;;;;;;6.88;5.25;;;;;;;9.93;100.00;96520.97;5066123;28;20028;-64
2022/11/02 02:44:09;;;;;;;6.55;4.65;;;;;;;9.99;100.00;96523.09;5067996;28;20506;-64
2022/11/02 02:47:12;;;;;;;8.88;4.70;;;;;;;10.00;100.00;96519.50;5067958;28;20037;-64
2022/11/02 02:49:46;;;;;;;7.78;5.28;;;;;;;9.98;100.00;96523.25;5005526;28;20042;-64
2022/11/02 02:52:14;;;;;;;5.63;4.40;;;;;;;9.98;100.00;96516.16;5064132;28;20055;-63
2022/11/02 02:54:42;;;;;;;7.32;4.30;;;;;;;10.01;100.00;96523.81;5072114;28;20029;-63
2022/11/02 02:57:16;;;;;;;5.63;4.22;;;;;;;10.14;100.00;96522.88;5071472;28;20044;-64
2022/11/02 02:59:43;;;;;;;7.20;3.30;;;;;;;10.09;100.00;96522.41;5070226;28;20069;-64
2022/11/02 03:02:21;;;;;;;7.13;3.53;;;;;;;10.00;100.00;96524.78;5069781;28;20036;-63
2022/11/02 03:04:47;;;;;;;3.80;3.50;;;;;;;9.95;100.00;96526.13;5071770;28;20063;-68
2022/11/02 03:07:18;;;;;;;5.00;3.92;;;;;;;9.91;100.00;96525.50;5071338;28;20072;-68
2022/11/02 03:09:52;;;;;;;4.80;3.42;;;;;;;9.90;100.00;96529.09;5072033;28;20495;-60
2022/11/02 03:12:38;;;;;;;7.10;3.28;;;;;;;9.88;100.00;96529.19;5066114;28;20510;-60
2022/11/02 03:15:58;;;;;;;3.60;3.03;;;;;;;9.91;100.00;96532.53;5071251;28;20032;-60
2022/11/02 03:18:35;;;;;;;7.60;3.33;;;;;;;9.93;100.00;96534.09;5051373;28;20063;-60
2022/11/02 03:21:19;;;;;;;3.88;3.45;;;;;;;9.96;100.00;96536.50;5069413;28;20159;-60
2022/11/02 03:23:53;;;;;;;3.83;3.20;;;;;;;10.12;100.00;96528.25;5070484;28;20513;-63
2022/11/02 03:26:32;;;;;;;8.25;3.45;;;;;;;10.06;100.00;96528.75;5069383;28;20115;-60
2022/11/02 03:29:03;;;;;;;3.85;3.55;;;;;;;10.06;100.00;96525.25;5071411;28;20040;-69
2022/11/02 03:31:41;;;;;;;13.80;3.67;;;;;;;10.07;100.00;96545.38;5070175;28;20045;-69
2022/11/02 03:34:26;;;;;;;3.70;3.40;;;;;;;10.10;100.00;96538.06;5071152;28;20086;-69
2022/11/02 03:37:06;;;;;;;6.45;4.25;;;;;;;10.12;100.00;96540.59;5071524;28;20048;-69
2022/11/02 03:39:37;;;;;;;4.38;3.95;;;;;;;10.16;100.00;96545.47;5071658;28;20469;-69
2022/11/02 03:42:04;;;;;;;10.57;3.95;;;;;;;10.17;100.00;96543.69;5071256;28;20025;-69
2022/11/02 03:44:36;;;;;;;4.47;3.67;;;;;;;10.17;100.00;96548.97;5070732;28;20086;-68
2022/11/02 03:47:02;;;;;;;6.45;4.00;;;;;;;10.20;100.00;96543.47;5074838;28;20040;-60
2022/11/02 03:49:29;;;;;;;5.38;3.70;;;;;;;10.23;100.00;96548.47;5071489;28;20111;-60
2022/11/02 03:51:58;;;;;;;4.57;3.50;;;;;;;10.23;100.00;96547.66;5070108;28;20475;-60
2022/11/02 03:54:53;;;;;;;4.45;3.60;;;;;;;10.22;100.00;96554.69;5071257;28;20094;-60
2022/11/02 03:57:25;;;;;;;4.57;3.70;;;;;;;10.24;100.00;96554.59;5069897;28;20024;-60
2022/11/02 03:59:51;;;;;;;6.03;4.03;;;;;;;10.24;100.00;96551.97;5070994;28;20062;-60
2022/11/02 04:02:18;;;;;;;4.70;4.22;;;;;;;10.24;100.00;96544.88;5071311;28;20025;-64
2022/11/02 04:04:48;;;;;;;5.95;3.67;;;;;;;10.24;100.00;96546.69;5069749;28;20032;-60
2022/11/02 04:07:16;;;;;;;7.13;4.40;;;;;;;10.23;100.00;96535.31;5071477;28;20067;-63
2022/11/02 04:09:41;;;;;;;5.70;4.40;;;;;;;10.23;100.00;96532.69;5070445;28;20033;-64
2022/11/02 04:14:51;;;;;;;9.05;3.95;;;;;;;10.11;100.00;96529.22;5069030;28;20406;-64
2022/11/02 04:20:00;;;;;;;7.05;3.95;;;;;;;10.03;100.00;96529.81;5071202;28;20909;-64
2022/11/02 04:25:19;;;;;;;8.68;3.70;;;;;;;10.06;100.00;96536.63;5071331;28;20036;-69
2022/11/02 04:27:47;;;;;;;5.53;4.07;;;;;;;10.07;100.00;96522.53;5070509;28;20516;-65
2022/11/02 04:30:14;;;;;;;7.20;3.72;;;;;;;10.08;100.00;96534.72;5069800;28;20079;-64
2022/11/02 04:35:27;;;;;;;7.00;4.60;;;;;;;10.08;100.00;96542.59;5067986;28;20038;-64
2022/11/02 04:40:36;;;;;;;7.35;4.65;;;;;;;10.11;100.00;96549.44;5068058;28;20055;-65
2022/11/02 04:43:01;;;;;;;10.00;4.40;;;;;;;10.15;100.00;96553.50;5071511;28;20032;-60
2022/11/02 04:45:27;;;;;;;7.93;4.70;;;;;;;10.17;100.00;96556.84;5071087;28;20553;-64
2022/11/02 04:47:59;;;;;;;10.85;4.85;;;;;;;10.20;100.00;96550.53;5069863;28;20619;-64
2022/11/02 04:50:25;;;;;;;5.88;4.20;;;;;;;10.22;100.00;96554.69;5069743;28;20036;-64
2022/11/02 04:52:57;;;;;;;6.85;3.95;;;;;;;10.23;100.00;96550.28;5069233;28;20056;-64
2022/11/02 04:55:23;;;;;;;5.07;4.55;;;;;;;10.23;100.00;96555.56;5066478;28;20032;-64
2022/11/02 04:57:48;;;;;;;8.88;4.25;;;;;;;10.25;100.00;96559.72;5069603;28;20688;-63
2022/11/02 05:00:14;;;;;;;4.65;4.10;;;;;;;10.29;100.00;96565.59;5069734;28;20025;-64
2022/11/02 05:02:40;;;;;;;4.55;4.18;;;;;;;10.29;100.00;96566.44;5067448;28;20044;-64
2022/11/02 05:05:06;;;;;;;9.23;5.13;;;;;;;10.31;100.00;96568.94;5069286;28;20391;-68
2022/11/02 05:07:31;;;;;;;7.95;4.50;;;;;;;10.31;100.00;96569.78;5069784;28;20405;-68
2022/11/02 05:09:56;;;;;;;10.65;4.75;;;;;;;10.30;100.00;96578.66;5068853;28;20025;-68
2022/11/02 05:12:22;;;;;;;9.02;5.18;;;;;;;10.34;100.00;96576.59;5070056;28;20044;-68
2022/11/02 05:14:47;;;;;;;6.75;4.43;;;;;;;10.35;100.00;96582.72;5068876;28;20029;-67
2022/11/02 05:17:13;;;;;;;7.00;4.07;;;;;;;10.36;100.00;96584.38;5069533;28;20126;-67
2022/11/02 05:19:38;;;;;;;8.57;4.22;;;;;;;10.35;100.00;96591.44;5069851;28;20066;-70
2022/11/02 05:22:04;;;;;;;5.95;4.28;;;;;;;10.35;100.00;96593.25;5070091;28;20068;-60
2022/11/02 05:24:30;;;;;;;5.07;4.30;;;;;;;10.36;100.00;96592.28;5069045;28;20051;-63
2022/11/02 05:26:55;;;;;;;4.28;3.88;;;;;;;10.36;100.00;96595.75;5068266;28;20490;-64
2022/11/02 05:29:20;;;;;;;5.47;4.38;;;;;;;10.36;100.00;96593.09;5068051;28;20035;-64
2022/11/02 05:31:46;;;;;;;5.32;3.90;;;;;;;10.35;100.00;96601.13;5063803;28;20410;-64
2022/11/02 05:34:11;;;;;;;6.15;4.25;;;;;;;10.33;100.00;96601.25;5067914;28;20020;-65
2022/11/02 05:36:36;;;;;;;9.77;3.97;;;;;;;10.35;100.00;96601.97;5068686;28;20048;-64
2022/11/02 05:39:02;;;;;;;4.38;3.92;;;;;;;10.35;100.00;96607.22;5071608;28;20043;-64
2022/11/02 05:41:27;;;;;;;6.47;4.22;;;;;;;10.36;100.00;96606.28;5069029;28;20052;-64
2022/11/02 05:43:52;;;;;;;8.50;4.07;;;;;;;10.35;100.00;96612.50;5069006;28;20036;-64
2022/11/02 05:46:18;;;;;;;6.88;4.32;;;;;;;10.34;100.00;96610.81;5069913;28;20043;-65
2022/11/02 05:48:43;;;;;;;6.72;4.30;;;;;;;10.35;100.00;96604.59;5068327;28;20472;-65
2022/11/02 05:51:08;;;;;;;4.50;4.10;;;;;;;10.38;100.00;96608.78;5067722;28;20036;-64
2022/11/02 05:53:37;;;;;;;10.85;4.55;;;;;;;10.38;100.00;96611.44;5068051;28;20032;-65
2022/11/02 05:56:04;;;;;;;9.35;4.53;;;;;;;10.37;100.00;96612.38;5069704;28;20047;-64
2022/11/02 05:58:31;;;;;;;7.32;4.47;;;;;;;10.36;100.00;96610.72;5068858;28;20391;-68
2022/11/02 06:01:00;;;;;;;7.68;4.90;;;;;;;10.38;100.00;96621.97;5068739;28;20445;-67
2022/11/02 06:03:26;;;;;;;5.07;4.57;;;;;;;10.39;100.00;96624.50;5068876;28;20042;-64
2022/11/02 06:06:00;;;;;;;6.45;5.10;;;;;;;10.42;100.00;96628.69;5069003;28;20036;-65
2022/11/02 06:08:26;;;;;;;11.50;5.05;;;;;;;10.41;100.00;96633.13;5068693;28;20024;-64
2022/11/02 06:10:52;;;;;;;9.30;5.60;;;;;;;10.45;100.00;96626.66;5069024;28;20021;-64
2022/11/02 06:13:17;;;;;;;10.00;5.18;;;;;;;10.43;100.00;96636.47;5067806;28;20115;-64
2022/11/02 06:15:42;;;;;;;6.65;4.43;;;;;;;10.44;100.00;96632.03;5068223;28;20119;-65
2022/11/02 06:18:08;;;;;;;5.95;4.43;;;;;;;10.45;100.00;96641.63;5068788;28;20353;-71
2022/11/02 06:20:33;;;;;;;7.43;4.28;;;;;;;10.44;100.00;96645.19;5068734;28;20111;-71
2022/11/02 06:22:59;;;;;;;5.30;4.70;;;;;;;10.44;100.00;96635.53;5069089;28;20387;-64
2022/11/02 06:25:25;;;;;;;11.77;5.03;;;;;;;10.45;100.00;96641.63;5067921;28;20448;-65
2022/11/02 06:27:55;;;;;;;6.72;5.10;;;;;;;10.45;100.00;96638.97;5068634;28;20032;-65
2022/11/02 06:30:21;;;;;;;8.52;5.57;;;;;;;10.48;100.00;96638.75;5068704;28;20461;-64
2022/11/02 06:32:48;;;;;;;8.88;5.70;;;;;;;10.50;100.00;96647.38;5068632;28;20703;-65
2022/11/02 06:35:14;;;;;;;7.30;5.75;;;;;;;10.51;100.00;96646.44;5049041;28;20036;-65
2022/11/02 06:37:40;;;;;;;5.30;4.80;;;;;;;10.50;100.00;96651.78;5069173;28;20033;-69
2022/11/02 06:40:05;;;;;;;8.82;5.32;;;;;;;10.50;100.00;96652.66;5068183;28;20039;-67
2022/11/02 06:42:31;;;;;;;12.68;5.13;;;;;;;10.52;100.00;96658.63;5068766;28;20028;-71
2022/11/02 06:45:01;;;;;;;9.45;5.72;;;;;;;10.53;100.00;96657.69;5067590;28;20028;-70
2022/11/02 06:47:34;;;;;;;7.63;4.97;;;;;;;10.55;100.00;96665.44;5068300;28;20043;-70
2022/11/02 06:50:00;;;;;;;7.75;4.95;;;;;;;10.57;100.00;96664.38;5067648;28;20031;-70
2022/11/02 06:52:27;;;;;;;7.72;5.35;;;;;;;10.58;100.00;96676.59;5066458;28;20028;-70
2022/11/02 06:54:52;;;;;;;11.18;5.78;;;;;;;10.59;100.00;96672.13;5065522;28;20064;-70
2022/11/02 06:57:18;;;;;;;5.65;3.97;;;;;;;10.55;100.00;96673.34;5066187;28;20094;-68
2022/11/02 06:59:44;;;;;;;5.85;3.67;;;;;;;10.48;100.00;96675.59;5065630;28;20040;-67
2022/11/02 07:02:09;;;;;;;6.45;2.70;;;;;;;10.43;100.00;96677.75;5066433;28;20067;-62
2022/11/02 07:04:34;;;;;;;9.07;2.83;;;;;;;10.42;100.00;96670.81;5065645;28;20040;-63
2022/11/02 07:07:00;;;;;;;4.97;2.88;;;;;;;10.41;100.00;96679.66;5067250;28;20044;-63
2022/11/02 07:09:25;;;;;;;5.95;2.72;;;;;;;10.43;100.00;96677.75;5050324;28;20033;-63
2022/11/02 07:11:51;;;;;;;4.78;3.13;;;;;;;10.44;100.00;96674.16;5067611;28;20057;-63
2022/11/02 07:14:17;;;;;;;10.15;3.35;;;;;;;10.45;100.00;96686.38;5068231;28;20024;-65
2022/11/02 07:16:42;;;;;;;6.22;2.60;;;;;;;10.42;100.00;96684.81;5060763;28;20095;-64
2022/11/02 07:19:07;;;;;;;4.13;2.08;;;;;;;10.38;100.00;96688.59;5061844;28;20052;-61
2022/11/02 07:21:33;;;;;;;3.75;2.58;;;;;;;10.41;100.00;96684.94;5066757;28;20402;-59
2022/11/02 07:23:58;;;;;;;5.60;2.47;;;;;;;10.46;100.00;96690.69;5066964;28;20040;-60
2022/11/02 07:26:25;;;;;;;5.75;2.80;;;;;;;10.50;100.00;96692.16;5068254;28;20081;-59
2022/11/02 07:28:50;;;;;;;8.02;2.85;;;;;;;10.51;100.00;96691.19;5067195;28;20510;-59
2022/11/02 07:31:16;;;;;;;6.32;3.05;;;;;;;10.54;100.00;96696.22;5068810;28;20154;-59
2022/11/02 07:33:41;;;;;;;7.82;2.70;;;;;;;10.54;100.00;96688.31;5067097;28;20050;-59
2022/11/02 07:36:07;;;;;;;5.60;2.72;;;;;;;10.54;100.00;96692.72;5069650;28;20060;-60
2022/11/02 07:38:32;;;;;;;9.30;3.28;;;;;;;10.55;100.00;96695.25;5070704;28;20115;-64
2022/11/02 07:40:57;;;;;;;6.10;2.72;;;;;;;10.58;100.00;96694.16;5071681;28;20028;-63
2022/11/02 07:43:23;;;;;;;8.70;2.90;;;;;;;10.62;100.00;96695.63;5070905;28;20052;-65
2022/11/02 07:45:48;;;;;;;6.70;2.95;;;;;;;10.66;100.00;96698.84;5071645;28;20494;-64
2022/11/02 07:48:13;;;;;;;6.10;2.90;;;;;;;10.68;100.00;96696.94;5071932;28;20166;-66
2022/11/02 07:50:39;;;;;;;3.53;2.20;;;;;;;10.73;100.00;96694.81;5071125;28;20028;-69
2022/11/02 07:53:04;;;;;;;5.50;2.50;;;;;;;10.83;100.00;96690.50;5071313;28;20453;-69
2022/11/02 07:55:31;;;;;;;9.55;2.97;;;;;;;10.86;100.00;96690.25;5070786;28;20039;-70
2022/11/02 07:58:12;;;;;;;6.80;2.85;;;;;;;10.87;100.00;96684.03;5071192;28;20544;-63
2022/11/02 08:00:39;;;;;;;5.40;2.45;;;;;;;10.91;100.00;96687.25;5070997;28;20510;-62
2022/11/02 08:03:06;;;;;;;3.72;2.40;;;;;;;10.99;100.00;96689.31;5070943;28;20513;-63
2022/11/02 08:05:34;;;;;;;5.63;3.17;;;;;;;11.06;100.00;96689.66;5062628;28;20028;-62
2022/11/02 08:08:03;;;;;;;3.28;2.33;;;;;;;11.10;100.00;96681.38;5069533;28;20047;-63
2022/11/02 08:10:30;;;;;;;6.35;2.67;;;;;;;11.13;100.00;96685.59;5063024;28;20526;-62
2022/11/02 08:12:56;;;;;;;6.13;2.72;;;;;;;11.15;100.00;96687.13;5068642;28;20509;-62
2022/11/02 08:15:22;;;;;;;3.58;2.90;;;;;;;11.32;100.00;96690.22;5071180;28;20067;-68
2022/11/02 08:17:57;;;;;;;5.20;2.95;;;;;;;11.30;100.00;96687.72;5070036;28;20036;-60
2022/11/02 08:20:23;;;;;;;11.20;3.40;;;;;;;11.35;100.00;96689.97;5064953;28;20036;-60
2022/11/02 08:22:49;;;;;;;5.05;2.88;;;;;;;11.35;100.00;96689.16;5071037;28;20029;-60
2022/11/02 08:25:14;;;;;;;7.28;3.40;;;;;;;11.43;100.00;96682.31;5070802;28;20029;-60
2022/11/02 08:27:40;;;;;;;9.45;3.10;;;;;;;11.53;100.00;96686.84;5069344;28;20490;-60
2022/11/02 08:30:06;;;;;;;8.40;3.38;;;;;;;11.56;100.00;96678.66;5069986;28;20029;-60
2022/11/02 08:32:32;;;;;;;7.63;2.80;;;;;;;11.61;100.00;96677.34;5069073;28;20032;-69
2022/11/02 08:34:57;;;;;;;7.80;3.17;;;;;;;11.71;100.00;96676.59;5069893;28;20028;-69
2022/11/02 08:37:22;;;;;;;5.22;2.70;;;;;;;11.83;100.00;96680.06;5068737;28;20032;-69
2022/11/02 08:39:48;;;;;;;5.10;2.70;;;;;;;11.99;100.00;96680.44;5070567;28;20032;-69
2022/11/02 08:42:13;;;;;;;5.95;2.83;;;;;;;12.11;100.00;96689.19;5069497;28;20476;-69
2022/11/02 08:44:39;;;;;;;8.13;3.28;;;;;;;12.13;100.00;96689.88;5069884;28;20086;-69
2022/11/02 08:47:04;;;;;;;9.27;3.45;;;;;;;12.18;100.00;96692.16;5069480;28;20039;-69
2022/11/02 08:49:29;;;;;;;5.15;3.80;;;;;;;12.17;100.00;96682.56;5069733;28;20033;-70
2022/11/02 08:51:55;;;;;;;4.55;3.60;;;;;;;12.11;100.00;96686.53;5069399;28;20038;-63
2022/11/02 08:54:20;;;;;;;6.15;2.92;;;;;;;12.10;100.00;96681.41;5070632;28;20518;-60
2022/11/02 08:56:45;;;;;;;8.68;3.60;;;;;;;11.94;100.00;96684.44;5069566;28;20068;-62
2022/11/02 08:59:11;;;;;;;6.35;4.22;;;;;;;11.90;100.00;96682.03;5070007;28;20029;-62
2022/11/02 09:01:37;;;;;;;8.07;4.63;;;;;;;11.86;100.00;96671.88;5069761;28;20064;-63
2022/11/02 09:04:03;;;;;;;6.75;3.88;;;;;;;11.88;100.00;96680.50;5070044;28;20025;-62
2022/11/02 09:06:29;;;;;;;9.15;4.57;;;;;;;11.91;100.00;96685.53;5069490;28;20066;-63
2022/11/02 09:08:54;;;;;;;10.70;4.38;;;;;;;11.90;100.00;96678.56;5069855;28;20029;-62
2022/11/02 09:11:20;;;;;;;6.00;3.75;;;;;;;11.85;100.00;96675.47;5068594;28;20059;-68
2022/11/02 09:13:45;;;;;;;5.82;4.07;;;;;;;11.81;100.00;96669.59;5069272;28;20040;-68
2022/11/02 09:16:10;;;;;;;5.13;3.50;;;;;;;11.86;100.00;96662.16;5061697;28;20055;-70
2022/11/02 09:18:36;;;;;;;4.53;3.45;;;;;;;11.91;100.00;96667.06;5069917;28;20040;-70
2022/11/02 09:21:03;;;;;;;8.48;3.33;;;;;;;12.03;100.00;96657.31;5068960;28;20051;-70
2022/11/02 09:23:29;;;;;;;7.45;4.28;;;;;;;12.21;100.00;96657.56;5070139;28;20041;-70
2022/11/02 09:25:54;;;;;;;8.95;4.55;;;;;;;12.22;100.00;96650.50;5068437;28;20043;-70
2022/11/02 09:28:20;;;;;;;8.18;4.22;;;;;;;12.17;100.00;96651.75;5069905;28;20032;-70
2022/11/02 09:30:46;;;;;;;6.40;3.35;;;;;;;12.20;100.00;96653.25;5069730;28;20028;-64
2022/11/02 09:33:12;;;;;;;6.57;3.08;;;;;;;12.24;100.00;96632.72;5068284;28;20017;-70
2022/11/02 09:35:40;;;;;;;5.32;2.80;;;;;;;12.28;100.00;96636.78;5068586;28;20524;-62
2022/11/02 09:38:06;;;;;;;5.88;3.20;;;;;;;12.27;100.00;96630.69;5068874;28;20105;-62
2022/11/02 09:40:42;;;;;;;5.55;3.30;;;;;;;12.27;100.00;96627.19;5068799;28;20037;-62
2022/11/02 09:43:07;;;;;;;9.73;3.63;;;;;;;12.38;100.00;96618.34;5069744;28;20040;-62
2022/11/02 09:45:38;;;;;;;4.97;3.33;;;;;;;12.47;100.00;96625.50;5068632;28;20036;-62
2022/11/02 09:48:57;;;;;;;6.07;3.60;;;;;;;12.56;100.00;96624.72;5069407;28;20062;-62
2022/11/02 09:51:28;;;;;;;5.93;4.18;;;;;;;12.67;100.00;96622.94;5034793;28;20032;-69
2022/11/02 09:53:58;;;;;;;6.32;3.80;;;;;;;12.76;100.00;96616.88;5066961;28;20051;-65
2022/11/02 09:56:25;;;;;;;6.93;3.95;;;;;;;12.83;100.00;96615.38;5068136;28;20498;-65
2022/11/02 09:58:58;;;;;;;7.00;3.28;;;;;;;12.90;100.00;96610.41;5068451;28;20082;-64
2022/11/02 10:01:29;;;;;;;5.80;3.20;;;;;;;12.97;100.00;96606.22;5068019;28;20465;-65
2022/11/02 10:04:01;;;;;;;6.13;3.17;;;;;;;13.04;100.00;96610.03;5068836;28;20043;-65
2022/11/02 10:06:28;;;;;;;5.93;3.60;;;;;;;13.15;100.00;96602.94;5068740;28;20518;-65
2022/11/02 10:09:06;;;;;;;3.42;2.83;;;;;;;13.23;100.00;96591.69;5068481;28;20155;-64
2022/11/02 10:11:45;;;;;;;8.57;3.15;;;;;;;13.20;100.00;96592.78;5068446;28;20028;-70
2022/11/02 10:14:17;;;;;;;5.70;2.70;;;;;;;13.22;100.00;96592.66;5068578;28;20025;-60
2022/11/02 10:17:09;;;;;;;8.23;3.35;;;;;;;13.18;100.00;96584.16;5068730;28;20109;-60
2022/11/02 10:19:39;;;;;;;3.95;3.40;;;;;;;13.17;100.00;96583.34;5066984;28;20036;-59
2022/11/02 10:22:08;;;;;;;7.18;3.88;;;;;;;13.16;100.00;96586.97;5068470;28;20060;-60
2022/11/02 10:24:37;;;;;;;6.50;3.63;;;;;;;13.14;100.00;96585.41;5067055;28;20025;-60
2022/11/02 10:27:19;;;;;;;6.03;2.97;;;;;;;13.20;100.00;96582.22;5068258;28;20036;-60
2022/11/02 10:29:53;;;;;;;6.93;3.20;;;;;;;13.25;100.00;96587.09;5067885;28;20036;-64
2022/11/02 10:32:19;;;;;;;4.63;3.17;;;;;;;13.46;100.00;96587.84;5065090;28;20202;-68
2022/11/02 10:34:45;;;;;;;6.97;3.03;;;;;;;13.55;100.00;96590.63;5066725;28;20032;-68
2022/11/02 10:37:40;;;;;;;3.75;2.78;;;;;;;13.55;100.00;96585.34;5067431;28;20040;-69
2022/11/02 10:40:24;;;;;;;6.03;3.30;;;;;;;13.55;100.00;96583.56;5067552;28;20041;-70
2022/11/02 10:43:07;;;;;;;7.80;3.83;;;;;;;13.54;100.00;96584.53;5067357;28;20090;-69
2022/11/02 10:46:06;;;;;;;5.22;3.45;;;;;;;13.55;100.00;96580.91;5068256;28;20029;-69
2022/11/02 10:48:50;;;;;;;4.68;3.90;;;;;;;13.65;100.00;96574.78;5066361;28;20078;-68
2022/11/02 10:51:16;;;;;;;7.82;3.60;;;;;;;13.66;100.00;96571.16;5061594;28;20029;-65
2022/11/02 10:53:47;;;;;;;6.00;3.53;;;;;;;13.52;100.00;96569.75;5067432;28;20032;-65
2022/11/02 10:56:26;;;;;;;7.07;3.85;;;;;;;13.53;100.00;96569.63;5067645;28;20119;-65
2022/11/02 10:59:14;;;;;;;7.53;3.30;;;;;;;13.66;100.00;96560.56;5067848;28;20494;-65
2022/11/02 11:02:03;;;;;;;5.80;3.00;;;;;;;13.82;100.00;96560.03;5059554;28;20040;-66
2022/11/02 11:04:30;;;;;;;4.68;3.70;;;;;;;13.98;100.00;96564.72;5063147;28;20564;-66
2022/11/02 11:06:57;;;;;;;6.38;3.78;;;;;;;14.01;100.00;96556.50;5067690;28;20060;-69
2022/11/02 11:09:29;;;;;;;4.57;4.18;;;;;;;14.18;100.00;96557.56;5068077;28;20060;-71
2022/11/02 11:11:57;;;;;;;4.03;3.35;;;;;;;14.08;100.00;96560.22;5070918;28;20040;-60
2022/11/02 11:14:25;;;;;;;4.57;3.40;;;;;;;14.00;100.00;96552.19;5072031;28;20086;-60
2022/11/02 11:17:12;;;;;;;5.40;3.90;;;;;;;13.86;100.00;96553.47;5071676;28;20152;-60
2022/11/02 11:19:53;;;;;;;3.70;3.10;;;;;;;13.80;100.00;96541.63;5071492;28;20040;-60
2022/11/02 11:22:23;;;;;;;5.28;3.65;;;;;;;13.83;100.00;96545.81;5069069;28;20036;-60
2022/11/02 11:24:48;;;;;;;6.75;3.15;;;;;;;13.87;100.00;96549.84;5071821;28;20032;-60
2022/11/02 11:27:21;;;;;;;4.72;3.20;;;;;;;13.78;100.00;96553.31;5053171;28;20074;-63
2022/11/02 11:29:53;;;;;;;4.05;3.03;;;;;;;13.79;100.00;96557.63;5071508;28;20059;-60
2022/11/02 11:32:22;;;;;;;5.28;3.35;;;;;;;13.71;100.00;96548.59;5068609;28;20028;-60
2022/11/02 11:35:14;;;;;;;6.68;3.35;;;;;;;13.73;99.74;96546.63;5071776;28;20528;-60
2022/11/02 11:37:54;;;;;;;5.78;2.90;;;;;;;13.64;100.00;96536.06;5068839;28;20029;-60
2022/11/02 11:40:21;;;;;;;7.18;3.15;;;;;;;13.75;100.00;96531.44;5068111;28;20043;-60
2022/11/02 11:42:52;;;;;;;6.20;2.75;;;;;;;13.67;99.85;96525.19;5071412;28;20624;-60
2022/11/02 11:45:24;;;;;;;4.40;3.38;;;;;;;13.62;99.70;96530.94;5069215;28;20031;-66
2022/11/02 11:47:55;;;;;;;6.10;2.58;;;;;;;13.65;99.41;96522.69;5071656;28;20040;-63
2022/11/02 11:50:22;;;;;;;3.10;2.80;;;;;;;13.83;99.55;96519.34;5070283;28;20409;-64